createdAt,value
2019-05-18T00:00:16.596Z,13.74
2019-05-18T00:04:40.853Z,13.72
2019-05-18T00:09:07.323Z,13.68
2019-05-18T00:13:31.921Z,13.61
2019-05-18T00:17:55.760Z,13.55
2019-05-18T00:22:19.963Z,13.48
2019-05-18T00:26:44.352Z,13.37
2019-05-18T00:31:08.342Z,13.37
2019-05-18T00:35:32.553Z,13.29
2019-05-18T00:39:56.707Z,13.20
2019-05-18T00:44:20.929Z,13.14
2019-05-18T00:48:45.442Z,13.11
2019-05-18T00:53:10.021Z,13.09
2019-05-18T00:57:35.379Z,13.10
2019-05-18T01:02:00.158Z,13.12
2019-05-18T01:06:24.029Z,13.15
2019-05-18T01:10:47.923Z,13.17
2019-05-18T01:15:12.921Z,13.18
2019-05-18T01:19:36.923Z,13.18
2019-05-18T01:24:00.906Z,13.19
2019-05-18T01:28:24.994Z,13.18
2019-05-18T01:32:49.317Z,13.16
2019-05-18T01:37:13.443Z,13.11
2019-05-18T01:41:37.574Z,13.10
2019-05-18T01:46:01.461Z,13.06
2019-05-18T01:50:25.362Z,13.02
2019-05-18T01:54:49.307Z,13.01
2019-05-18T01:59:13.430Z,12.99
2019-05-18T02:03:37.624Z,12.94
2019-05-18T02:08:01.811Z,12.89
2019-05-18T02:12:25.687Z,12.83
2019-05-18T02:16:49.903Z,12.78
2019-05-18T02:21:13.761Z,12.71
2019-05-18T02:25:37.664Z,12.61
2019-05-18T02:30:02.012Z,12.55
2019-05-18T02:34:26.053Z,12.47
2019-05-18T02:38:50.342Z,12.39
2019-05-18T02:43:15.893Z,12.30
2019-05-18T02:47:40.846Z,12.24
2019-05-18T02:52:06.300Z,12.14
2019-05-18T02:56:31.685Z,12.06
2019-05-18T03:00:55.939Z,11.98
2019-05-18T03:05:20.075Z,11.92
2019-05-18T03:09:44.345Z,11.84
2019-05-18T03:14:08.765Z,11.77
2019-05-18T03:18:33.101Z,11.68
2019-05-18T03:22:57.574Z,11.63
2019-05-18T03:27:21.899Z,11.50
2019-05-18T03:31:45.781Z,11.50
2019-05-18T03:36:10.902Z,11.44
2019-05-18T03:40:34.909Z,11.40
2019-05-18T03:44:59.067Z,11.35
2019-05-18T03:49:27.493Z,11.31
2019-05-18T03:53:48.892Z,11.25
2019-05-18T03:58:12.775Z,11.20
2019-05-18T04:02:36.679Z,11.17
2019-05-18T04:07:00.562Z,11.12
2019-05-18T04:11:24.413Z,11.10
2019-05-18T04:15:49.248Z,11.10
2019-05-18T04:20:13.482Z,11.10
2019-05-18T04:24:37.619Z,11.10
2019-05-18T04:29:01.631Z,11.10
2019-05-18T04:33:27.689Z,11.09
2019-05-18T04:37:52.037Z,11.08
2019-05-18T04:42:16.042Z,11.10
2019-05-18T04:46:40.432Z,11.13
2019-05-18T04:51:04.419Z,11.18
2019-05-18T04:55:28.820Z,11.21
2019-05-18T04:59:53.006Z,11.25
2019-05-18T05:04:17.582Z,11.28
2019-05-18T05:08:41.730Z,11.31
2019-05-18T05:13:06.205Z,11.39
2019-05-18T05:17:30.071Z,11.45
2019-05-18T05:21:54.697Z,11.50
2019-05-18T05:26:18.787Z,11.54
2019-05-18T05:30:42.751Z,11.58
2019-05-18T05:35:07.986Z,11.66
2019-05-18T05:39:31.810Z,11.79
2019-05-18T05:43:55.633Z,11.87
2019-05-18T05:48:19.745Z,11.96
2019-05-18T05:52:43.757Z,12.14
2019-05-18T05:57:07.960Z,12.31
2019-05-18T06:01:31.998Z,12.50
2019-05-18T06:05:55.893Z,12.83
2019-05-18T06:10:20.237Z,13.36
2019-05-18T06:14:44.282Z,13.96
2019-05-18T06:19:08.168Z,14.67
2019-05-18T06:23:32.046Z,15.32
2019-05-18T06:27:57.214Z,15.92
2019-05-18T06:32:23.943Z,16.51
2019-05-18T06:36:48.014Z,17.10
2019-05-18T06:41:11.884Z,17.58
2019-05-18T06:45:36.056Z,17.86
2019-05-18T06:49:59.974Z,18.25
2019-05-18T06:54:24.241Z,18.65
2019-05-18T06:58:49.607Z,19.10
2019-05-18T07:03:13.785Z,19.10
2019-05-18T07:07:37.653Z,19.52
2019-05-18T07:12:01.987Z,20.07
2019-05-18T07:16:26.058Z,20.39
2019-05-18T07:20:51.164Z,20.61
2019-05-18T07:25:15.297Z,20.84
2019-05-18T07:29:39.230Z,20.98
2019-05-18T07:34:03.442Z,21.37
2019-05-18T07:38:27.933Z,21.91
2019-05-18T07:42:52.119Z,21.91
2019-05-18T07:47:16.323Z,22.15
2019-05-18T07:51:40.200Z,23.12
2019-05-18T07:56:06.005Z,23.12
2019-05-18T08:00:30.196Z,23.25
2019-05-18T08:04:54.313Z,23.53
2019-05-18T08:09:18.206Z,23.60
2019-05-18T08:13:42.534Z,24.11
2019-05-18T08:18:07.051Z,24.11
2019-05-18T08:22:31.073Z,24.42
2019-05-18T08:26:54.981Z,24.50
2019-05-18T08:31:18.885Z,24.37
2019-05-18T08:35:42.740Z,24.71
2019-05-18T08:40:07.152Z,25.13
2019-05-18T08:44:32.053Z,25.07
2019-05-18T08:48:55.868Z,24.87
2019-05-18T08:53:23.754Z,24.70
2019-05-18T08:57:47.958Z,24.63
2019-05-18T09:02:11.890Z,24.66
2019-05-18T09:06:35.782Z,24.37
2019-05-18T09:10:59.663Z,24.16
2019-05-18T09:15:24.859Z,24.15
2019-05-18T09:19:48.974Z,24.02
2019-05-18T09:24:13.490Z,23.82
2019-05-18T09:28:37.683Z,23.84
2019-05-18T09:33:01.858Z,23.65
2019-05-18T09:37:25.824Z,23.65
2019-05-18T09:41:50.041Z,23.41
2019-05-18T09:46:13.849Z,23.29
2019-05-18T09:50:37.677Z,23.08
2019-05-18T09:55:02.699Z,23.06
2019-05-18T09:59:26.732Z,23.10
2019-05-18T10:03:50.776Z,23.21
2019-05-18T10:08:15.161Z,23.31
2019-05-18T10:12:39.292Z,23.32
2019-05-18T10:17:03.506Z,23.54
2019-05-18T10:21:27.486Z,23.70
2019-05-18T10:25:51.864Z,23.75
2019-05-18T10:30:16.244Z,23.75
2019-05-18T10:34:40.882Z,23.96
2019-05-18T10:39:07.138Z,24.17
2019-05-18T10:43:32.271Z,24.34
2019-05-18T10:47:56.567Z,24.63
2019-05-18T10:52:22.265Z,24.97
2019-05-18T10:56:46.441Z,25.58
2019-05-18T11:01:15.413Z,26.00
2019-05-18T11:05:58.617Z,26.53
2019-05-18T11:10:46.163Z,26.72
2019-05-18T11:15:29.199Z,27.08
2019-05-18T11:20:15.399Z,27.06
2019-05-18T11:24:59.257Z,27.05
2019-05-18T11:29:43.123Z,27.17
2019-05-18T11:34:27.044Z,26.98
2019-05-18T11:39:09.018Z,26.58
2019-05-18T11:43:49.328Z,26.22
2019-05-18T11:48:20.584Z,26.64
2019-05-18T11:52:44.415Z,26.56
2019-05-18T11:57:17.750Z,26.25
2019-05-18T12:01:42.066Z,26.72
2019-05-18T12:06:16.094Z,27.10
2019-05-18T12:10:40.903Z,27.62
2019-05-18T12:15:23.267Z,27.91
2019-05-18T12:19:47.407Z,27.95
2019-05-18T12:24:15.328Z,28.22
2019-05-18T12:28:37.944Z,28.53
2019-05-18T12:33:02.832Z,28.88
2019-05-18T12:37:27.878Z,28.76
2019-05-18T12:41:51.811Z,28.65
2019-05-18T12:46:20.952Z,28.62
2019-05-18T12:50:45.059Z,28.95
2019-05-18T12:55:09.717Z,29.18
2019-05-18T12:59:33.799Z,28.84
2019-05-18T13:04:02.169Z,28.83
2019-05-18T13:08:26.441Z,28.88
2019-05-18T13:12:50.457Z,29.32
2019-05-18T13:17:14.822Z,29.59
2019-05-18T13:21:38.952Z,29.88
2019-05-18T13:26:03.921Z,29.75
2019-05-18T13:30:30.013Z,29.75
2019-05-18T13:34:54.679Z,29.45
2019-05-18T13:39:19.185Z,28.71
2019-05-18T13:43:44.067Z,28.32
2019-05-18T13:48:08.257Z,28.50
2019-05-18T13:52:32.366Z,28.51
2019-05-18T13:56:56.426Z,28.25
2019-05-18T14:01:20.889Z,27.85
2019-05-18T14:05:50.520Z,28.06
2019-05-18T14:10:15.031Z,28.08
2019-05-18T14:14:47.634Z,27.74
2019-05-18T14:19:12.270Z,27.54
2019-05-18T14:23:36.702Z,27.43
2019-05-18T14:28:00.817Z,27.24
2019-05-18T14:32:26.134Z,26.97
2019-05-18T14:36:50.657Z,26.71
2019-05-18T14:41:20.405Z,26.52
2019-05-18T14:45:44.515Z,26.33
2019-05-18T14:50:09.130Z,26.15
2019-05-18T14:54:38.848Z,26.16
2019-05-18T14:59:03.846Z,26.21
2019-05-18T15:03:28.031Z,26.02
2019-05-18T15:07:52.272Z,25.95
2019-05-18T15:12:16.795Z,26.22
2019-05-18T15:16:52.969Z,26.30
2019-05-18T15:21:18.080Z,26.34
2019-05-18T15:26:07.941Z,26.35
2019-05-18T15:30:32.831Z,26.26
2019-05-18T15:34:58.233Z,26.19
2019-05-18T15:39:22.427Z,26.29
2019-05-18T15:43:46.633Z,26.45
2019-05-18T15:48:11.828Z,26.60
2019-05-18T15:52:37.622Z,26.79
2019-05-18T15:57:01.645Z,26.84
2019-05-18T16:01:25.930Z,26.62
2019-05-18T16:05:50.149Z,26.50
2019-05-18T16:10:15.842Z,26.43
2019-05-18T16:14:43.652Z,26.25
2019-05-18T16:19:08.611Z,26.04
2019-05-18T16:23:32.925Z,26.00
2019-05-18T16:27:57.856Z,25.86
2019-05-18T16:32:21.987Z,25.76
2019-05-18T16:36:47.391Z,25.54
2019-05-18T16:41:11.587Z,25.41
2019-05-18T16:45:36.824Z,25.28
2019-05-18T16:50:01.865Z,25.06
2019-05-18T16:54:26.395Z,24.92
2019-05-18T16:58:50.822Z,24.76
2019-05-18T17:03:16.319Z,24.60
2019-05-18T17:07:40.505Z,24.53
2019-05-18T17:12:05.854Z,24.39
2019-05-18T17:16:30.055Z,24.27
2019-05-18T17:20:54.209Z,24.10
2019-05-18T17:25:18.508Z,23.86
2019-05-18T17:29:42.629Z,23.79
2019-05-18T17:34:08.977Z,23.71
2019-05-18T17:38:32.851Z,23.62
2019-05-18T17:42:57.066Z,23.60
2019-05-18T17:47:20.948Z,23.53
2019-05-18T17:51:45.130Z,23.47
2019-05-18T17:56:09.263Z,23.42
2019-05-18T18:00:33.297Z,23.26
2019-05-18T18:04:57.461Z,23.28
2019-05-18T18:09:22.285Z,23.25
2019-05-18T18:13:47.031Z,23.26
2019-05-18T18:18:11.206Z,23.16
2019-05-18T18:22:35.475Z,23.13
2019-05-18T18:26:59.966Z,23.11
2019-05-18T18:31:24.788Z,23.05
2019-05-18T18:35:48.901Z,23.00
2019-05-18T18:40:13.486Z,22.95
2019-05-18T18:44:37.593Z,22.86
2019-05-18T18:49:01.769Z,22.74
2019-05-18T18:53:26.584Z,22.65
2019-05-18T18:57:50.797Z,22.57
2019-05-18T19:02:15.306Z,22.48
2019-05-18T19:06:39.514Z,22.40
2019-05-18T19:11:04.008Z,22.16
2019-05-18T19:15:29.505Z,21.69
2019-05-18T19:19:53.616Z,21.43
2019-05-18T19:24:17.859Z,21.33
2019-05-18T19:28:42.571Z,21.16
2019-05-18T19:33:06.803Z,21.06
2019-05-18T19:37:31.294Z,20.95
2019-05-18T19:41:55.489Z,20.93
2019-05-18T19:46:19.694Z,20.84
2019-05-18T19:50:45.021Z,20.65
2019-05-18T19:55:17.369Z,20.59
2019-05-18T19:59:41.492Z,20.58
2019-05-18T20:04:06.226Z,20.51
2019-05-18T20:08:31.323Z,20.41
2019-05-18T20:12:55.602Z,20.29
2019-05-18T20:17:19.860Z,20.29
2019-05-18T20:21:44.934Z,20.19
2019-05-18T20:26:08.815Z,20.10
2019-05-18T20:30:32.797Z,20.07
2019-05-18T20:34:57.142Z,20.04
2019-05-18T20:39:21.384Z,19.92
2019-05-18T20:43:45.597Z,19.71
2019-05-18T20:48:09.901Z,19.71
2019-05-18T20:52:33.961Z,19.65
2019-05-18T20:56:57.830Z,19.62
2019-05-18T21:01:22.040Z,19.59
2019-05-18T21:05:46.843Z,19.55
2019-05-18T21:10:12.397Z,19.52
2019-05-18T21:14:36.776Z,19.39
2019-05-18T21:19:06.596Z,19.30
2019-05-18T21:23:30.748Z,19.19
2019-05-18T21:27:54.888Z,19.08
2019-05-18T21:32:21.831Z,18.99
2019-05-18T21:36:45.720Z,18.99
2019-05-18T21:41:09.593Z,18.96
2019-05-18T21:45:34.348Z,18.94
2019-05-18T21:49:58.668Z,18.88
2019-05-18T21:54:23.714Z,18.85
2019-05-18T21:58:47.848Z,18.82
2019-05-18T22:03:12.723Z,18.76
2019-05-18T22:07:36.514Z,18.75
2019-05-18T22:12:00.806Z,18.73
2019-05-18T22:16:24.940Z,18.74
2019-05-18T22:20:49.562Z,18.73
2019-05-18T22:25:13.693Z,18.72
2019-05-18T22:29:38.495Z,18.71
2019-05-18T22:34:04.123Z,18.73
2019-05-18T22:38:28.717Z,18.66
2019-05-18T22:42:53.841Z,18.66
2019-05-18T22:47:18.023Z,18.73
2019-05-18T22:51:42.291Z,18.71
2019-05-18T22:56:07.731Z,18.68
2019-05-18T23:00:31.976Z,18.59
2019-05-18T23:04:56.027Z,18.59
2019-05-18T23:09:20.069Z,18.48
2019-05-18T23:13:44.406Z,18.42
2019-05-18T23:18:08.633Z,18.35
2019-05-18T23:22:32.496Z,18.32
2019-05-18T23:26:56.535Z,18.26
2019-05-18T23:31:21.839Z,18.18
2019-05-18T23:35:46.184Z,18.10
2019-05-18T23:40:10.336Z,18.03
2019-05-18T23:44:34.818Z,17.95
2019-05-18T23:49:10.031Z,17.83
2019-05-18T23:53:25.530Z,17.74
2019-05-18T23:57:50.640Z,17.63
